Cedar Park's Hourly Summary for Saturday, May 12, 2018
Hour Temp
(f)
RH
(%)
Solar Rad.
(MJ/m2)
Rainfall
(in)
Wind
(mph)
5/12/2018 12:00 AM 74 83 0 0 8.04
5/12/2018 1:00 AM 73 86 0 0 8.04
5/12/2018 2:00 AM 73 86 0 0 7.89
5/12/2018 3:00 AM 73 85 0 0 7.19
5/12/2018 4:00 AM 72 85 0 0 5.85
5/12/2018 5:00 AM 72 85 0 0 5.76
5/12/2018 6:00 AM 71 89 0.01 0 5.76
5/12/2018 7:00 AM 71 89 0.15 0 5.69
5/12/2018 8:00 AM 72 87 0.69 0 6.19
5/12/2018 9:00 AM 75 78 1.65 0 6.69
5/12/2018 10:00 AM 76 66 1.65 0 6.69
5/12/2018 11:00 AM 80 59 2.49 0 6.7
5/12/2018 12:00 PM 82 54 2.87 0 6.7
5/12/2018 1:00 PM 83 50 2.87 0 6.42
5/12/2018 2:00 PM 84 48 2.77 0 6.59
5/12/2018 3:00 PM 85 45 2.62 0 6.67
5/12/2018 4:00 PM 86 43 1.99 0 7.04
5/12/2018 5:00 PM 86 43 1.91 0 7.04
5/12/2018 6:00 PM 86 42 0.86 0 6.55
5/12/2018 7:00 PM 86 45 0.34 0 5.91
5/12/2018 8:00 PM 85 51 0.19 0 5.87
5/12/2018 9:00 PM 83 59 0.01 0 6.99
5/12/2018 10:00 PM 80 66 0 0 7.96
5/12/2018 11:00 PM 78 75 0 0 8.23
Data Summary 78 66 23.07 0.00 6.77